createdAt,value
2019-05-20T00:01:50.196Z,13.30
2019-05-20T00:04:39.309Z,13.30
2019-05-20T00:07:28.689Z,13.20
2019-05-20T00:10:17.732Z,13.20
2019-05-20T00:13:07.282Z,13.20
2019-05-20T00:15:55.921Z,13.20
2019-05-20T00:18:45.301Z,13.10
2019-05-20T00:21:34.646Z,13.10
2019-05-20T00:24:24.045Z,13.10
2019-05-20T00:27:13.155Z,13.10
2019-05-20T00:30:02.782Z,13.10
2019-05-20T00:32:51.812Z,13.00
2019-05-20T00:35:41.138Z,13.00
2019-05-20T00:38:29.811Z,12.90
2019-05-20T00:41:19.469Z,12.90
2019-05-20T00:44:08.541Z,12.90
2019-05-20T00:46:57.863Z,12.90
2019-05-20T00:49:46.738Z,12.80
2019-05-20T00:52:36.020Z,12.70
2019-05-20T00:55:33.290Z,12.70
2019-05-20T00:58:23.055Z,12.70
2019-05-20T01:01:12.640Z,12.60
2019-05-20T01:04:01.566Z,12.60
2019-05-20T01:06:50.866Z,12.50
2019-05-20T01:09:39.947Z,12.50
2019-05-20T01:12:28.688Z,12.50
2019-05-20T01:15:18.646Z,12.50
2019-05-20T01:18:08.466Z,12.50
2019-05-20T01:20:59.133Z,12.50
2019-05-20T01:23:48.432Z,12.50
2019-05-20T01:26:37.199Z,12.50
2019-05-20T01:29:27.129Z,12.40
2019-05-20T01:32:16.536Z,12.50
2019-05-20T01:35:08.579Z,12.40
2019-05-20T01:37:57.336Z,12.50
2019-05-20T01:40:46.341Z,12.50
2019-05-20T01:43:35.776Z,12.50
2019-05-20T01:46:24.853Z,12.50
2019-05-20T01:49:14.465Z,12.50
2019-05-20T01:52:03.586Z,12.40
2019-05-20T01:54:52.648Z,12.40
2019-05-20T01:57:41.714Z,12.30
2019-05-20T02:00:30.902Z,12.30
2019-05-20T02:03:31.069Z,12.30
2019-05-20T02:06:10.978Z,12.30
2019-05-20T02:09:00.025Z,12.40
2019-05-20T02:11:48.674Z,12.40
2019-05-20T02:14:44.597Z,12.40
2019-05-20T02:17:34.383Z,12.50
2019-05-20T02:20:23.431Z,12.50
2019-05-20T02:23:14.431Z,12.50
2019-05-20T02:26:02.987Z,12.60
2019-05-20T02:28:52.171Z,12.50
2019-05-20T02:31:41.165Z,12.40
2019-05-20T02:34:30.313Z,12.40
2019-05-20T02:37:19.592Z,12.40
2019-05-20T02:40:09.356Z,12.40
2019-05-20T02:42:59.467Z,12.50
2019-05-20T02:45:48.534Z,12.40
2019-05-20T02:48:37.988Z,12.40
2019-05-20T02:51:32.714Z,12.40
2019-05-20T02:54:22.066Z,12.40
2019-05-20T02:57:11.312Z,12.40
2019-05-20T03:00:00.588Z,12.40
2019-05-20T03:02:49.360Z,12.40
2019-05-20T03:05:38.005Z,12.40
2019-05-20T03:08:27.601Z,12.40
2019-05-20T03:11:16.799Z,12.40
2019-05-20T03:14:06.631Z,12.40
2019-05-20T03:16:55.810Z,12.40
2019-05-20T03:19:44.247Z,12.40
2019-05-20T03:22:33.659Z,12.30
2019-05-20T03:25:22.911Z,12.40
2019-05-20T03:28:12.043Z,12.30
2019-05-20T03:31:01.673Z,12.40
2019-05-20T03:33:49.988Z,12.40
2019-05-20T03:36:39.148Z,12.40
2019-05-20T03:39:28.743Z,12.40
2019-05-20T03:42:17.653Z,12.50
2019-05-20T03:45:09.895Z,12.50
2019-05-20T03:47:58.498Z,12.40
2019-05-20T03:50:47.468Z,12.40
2019-05-20T03:53:36.558Z,12.50
2019-05-20T03:56:25.943Z,12.40
2019-05-20T03:59:15.282Z,12.40
2019-05-20T04:02:04.513Z,12.30
2019-05-20T04:05:02.239Z,12.20
2019-05-20T04:07:43.982Z,12.20
2019-05-20T04:10:34.250Z,12.20
2019-05-20T04:13:23.440Z,12.20
2019-05-20T04:16:12.743Z,12.30
2019-05-20T04:19:02.607Z,12.20
2019-05-20T04:21:51.458Z,12.30
2019-05-20T04:24:40.642Z,12.30
2019-05-20T04:27:30.189Z,12.30
2019-05-20T04:30:19.462Z,12.20
2019-05-20T04:33:08.737Z,12.20
2019-05-20T04:35:57.650Z,12.20
2019-05-20T04:38:46.489Z,12.30
2019-05-20T04:41:36.544Z,12.30
2019-05-20T04:44:25.640Z,12.30
2019-05-20T04:47:14.267Z,12.40
2019-05-20T04:50:04.356Z,12.50
2019-05-20T04:52:53.727Z,12.40
2019-05-20T04:55:42.821Z,12.40
2019-05-20T04:58:32.080Z,12.40
2019-05-20T05:01:21.140Z,12.50
2019-05-20T05:04:10.433Z,12.70
2019-05-20T05:07:01.467Z,12.70
2019-05-20T05:09:50.971Z,12.80
2019-05-20T05:12:40.573Z,12.80
2019-05-20T05:15:29.497Z,12.90
2019-05-20T05:18:19.515Z,13.10
2019-05-20T05:21:08.817Z,13.10
2019-05-20T05:23:59.640Z,13.10
2019-05-20T05:26:49.207Z,13.20
2019-05-20T05:29:38.754Z,13.20
2019-05-20T05:32:43.686Z,13.40
2019-05-20T05:35:34.165Z,13.50
2019-05-20T05:38:23.311Z,13.60
2019-05-20T05:41:12.909Z,13.40
2019-05-20T05:44:01.938Z,13.40
2019-05-20T05:46:51.352Z,13.50
2019-05-20T05:49:39.794Z,13.60
2019-05-20T05:52:29.068Z,13.60
2019-05-20T05:55:18.547Z,13.70
2019-05-20T05:58:08.732Z,13.80
2019-05-20T06:00:58.607Z,13.70
2019-05-20T06:03:48.188Z,13.70
2019-05-20T06:06:37.527Z,13.70
2019-05-20T06:09:26.835Z,13.80
2019-05-20T06:12:15.921Z,13.70
2019-05-20T06:15:08.178Z,13.80
2019-05-20T06:17:56.716Z,13.90
2019-05-20T06:20:45.963Z,14.00
2019-05-20T06:23:35.046Z,14.00
2019-05-20T06:26:24.295Z,14.10
2019-05-20T06:29:13.464Z,14.20
2019-05-20T06:32:02.652Z,14.10
2019-05-20T06:34:52.335Z,14.10
2019-05-20T06:37:48.786Z,14.10
2019-05-20T06:40:37.538Z,14.10
2019-05-20T06:43:26.502Z,14.10
2019-05-20T06:46:15.711Z,14.10
2019-05-20T06:49:04.198Z,13.90
2019-05-20T06:51:53.967Z,14.10
2019-05-20T06:54:42.891Z,14.00
2019-05-20T06:57:32.403Z,14.20
2019-05-20T07:00:35.285Z,14.40
2019-05-20T07:03:24.567Z,14.60
2019-05-20T07:06:13.569Z,14.80
2019-05-20T07:09:03.830Z,14.70
2019-05-20T07:11:53.323Z,14.90
2019-05-20T07:14:42.991Z,14.90
2019-05-20T07:17:32.149Z,15.00
2019-05-20T07:20:21.715Z,15.30
2019-05-20T07:23:10.793Z,15.30
2019-05-20T07:26:00.254Z,15.40
2019-05-20T07:28:49.308Z,15.30
2019-05-20T07:31:38.912Z,15.60
2019-05-20T07:34:27.571Z,15.70
2019-05-20T07:37:16.714Z,15.90
2019-05-20T07:40:07.037Z,15.90
2019-05-20T07:42:56.197Z,16.50
2019-05-20T07:45:46.045Z,16.70
2019-05-20T07:48:36.149Z,16.60
2019-05-20T07:51:25.522Z,16.90
2019-05-20T07:54:15.888Z,16.40
2019-05-20T07:57:08.777Z,16.30
2019-05-20T07:59:58.638Z,16.30
2019-05-20T08:02:48.130Z,16.30
2019-05-20T08:05:37.106Z,16.50
2019-05-20T08:08:25.854Z,16.40
2019-05-20T08:11:15.080Z,16.50
2019-05-20T08:14:03.983Z,16.70
2019-05-20T08:16:52.934Z,17.30
2019-05-20T08:19:42.534Z,17.80
2019-05-20T08:22:31.585Z,17.90
2019-05-20T08:25:20.793Z,18.00
2019-05-20T08:28:10.080Z,17.70
2019-05-20T08:31:00.656Z,17.30
2019-05-20T08:33:49.851Z,17.10
2019-05-20T08:36:38.827Z,17.20
2019-05-20T08:39:28.532Z,17.70
2019-05-20T08:42:17.493Z,17.70
2019-05-20T08:45:08.249Z,18.10
2019-05-20T08:47:58.060Z,18.40
2019-05-20T08:50:48.067Z,18.40
2019-05-20T08:53:37.347Z,18.80
2019-05-20T08:56:25.914Z,18.50
2019-05-20T08:59:15.565Z,18.20
2019-05-20T09:02:04.684Z,18.30
2019-05-20T09:04:53.900Z,18.00
2019-05-20T09:08:01.083Z,18.40
2019-05-20T09:10:39.302Z,18.40
2019-05-20T09:13:26.350Z,18.60
2019-05-20T09:16:16.115Z,18.80
2019-05-20T09:19:05.418Z,19.10
2019-05-20T09:21:55.251Z,19.20
2019-05-20T09:24:44.498Z,19.20
2019-05-20T09:27:33.611Z,18.90
2019-05-20T09:30:23.016Z,18.90
2019-05-20T09:33:12.828Z,19.30
2019-05-20T09:36:03.988Z,19.30
2019-05-20T09:38:53.044Z,19.30
2019-05-20T09:41:42.598Z,18.80
2019-05-20T09:44:31.563Z,18.60
2019-05-20T09:47:20.833Z,18.90
2019-05-20T09:50:10.883Z,18.50
2019-05-20T09:52:59.554Z,18.70
2019-05-20T09:55:48.732Z,18.80
2019-05-20T09:58:38.327Z,18.60
2019-05-20T10:01:27.523Z,18.80
2019-05-20T10:04:16.976Z,19.10
2019-05-20T10:07:06.492Z,19.30
2019-05-20T10:09:55.601Z,19.70
2019-05-20T10:12:46.787Z,19.70
2019-05-20T10:15:35.581Z,19.60
2019-05-20T10:18:36.654Z,19.90
2019-05-20T10:21:15.092Z,20.00
2019-05-20T10:24:05.098Z,19.80
2019-05-20T10:26:53.839Z,20.00
2019-05-20T10:29:43.264Z,20.10
2019-05-20T10:32:32.387Z,20.10
2019-05-20T10:35:21.484Z,20.00
2019-05-20T10:38:10.971Z,19.80
2019-05-20T10:41:00.353Z,20.00
2019-05-20T10:43:49.499Z,20.00
2019-05-20T10:46:38.705Z,20.60
2019-05-20T10:49:27.835Z,19.90
2019-05-20T10:52:16.889Z,19.60
2019-05-20T10:55:10.365Z,19.80
2019-05-20T10:57:59.695Z,19.70
2019-05-20T11:01:01.826Z,20.10
2019-05-20T11:03:39.102Z,20.40
2019-05-20T11:06:28.467Z,20.00
2019-05-20T11:09:18.287Z,19.90
2019-05-20T11:12:07.301Z,20.20
2019-05-20T11:14:56.584Z,20.10
2019-05-20T11:17:45.744Z,20.30
2019-05-20T11:20:34.821Z,20.00
2019-05-20T11:23:24.078Z,20.30
2019-05-20T11:26:13.373Z,20.10
2019-05-20T11:29:02.883Z,20.60
2019-05-20T11:31:52.069Z,20.30
2019-05-20T11:34:41.451Z,20.50
2019-05-20T11:37:31.158Z,20.20
2019-05-20T11:40:20.361Z,20.00
2019-05-20T11:43:08.974Z,20.10
2019-05-20T11:45:57.429Z,19.40
2019-05-20T11:48:46.594Z,19.50
2019-05-20T11:51:35.908Z,19.50
2019-05-20T11:54:25.337Z,19.70
2019-05-20T11:57:14.865Z,19.60
2019-05-20T12:00:05.947Z,19.50
2019-05-20T12:02:54.908Z,19.70
2019-05-20T12:05:44.357Z,20.00
2019-05-20T12:08:33.853Z,20.00
2019-05-20T12:11:23.001Z,20.30
2019-05-20T12:14:12.161Z,20.30
2019-05-20T12:17:00.950Z,20.00
2019-05-20T12:19:50.011Z,19.80
2019-05-20T12:22:39.269Z,19.90
2019-05-20T12:25:28.173Z,20.10
2019-05-20T12:28:17.079Z,20.00
2019-05-20T12:31:06.044Z,19.50
2019-05-20T12:33:55.204Z,19.80
2019-05-20T12:36:44.279Z,20.10
2019-05-20T12:39:33.460Z,20.50
2019-05-20T12:42:22.919Z,20.20
2019-05-20T12:45:13.438Z,20.40
2019-05-20T12:48:02.593Z,20.40
2019-05-20T12:50:51.679Z,20.60
2019-05-20T12:53:40.939Z,20.80
2019-05-20T12:56:29.899Z,20.80
2019-05-20T12:59:19.479Z,20.90
2019-05-20T13:02:08.694Z,21.10
2019-05-20T13:04:58.709Z,21.10
2019-05-20T13:07:47.634Z,21.10
2019-05-20T13:10:36.948Z,21.00
2019-05-20T13:13:26.618Z,21.20
2019-05-20T13:16:15.854Z,21.10
2019-05-20T13:19:05.074Z,21.30
2019-05-20T13:21:54.330Z,21.10
2019-05-20T13:24:43.493Z,21.20
2019-05-20T13:27:32.486Z,21.40
2019-05-20T13:30:23.672Z,21.50
2019-05-20T13:33:12.638Z,21.60
2019-05-20T13:36:01.510Z,21.80
2019-05-20T13:38:51.086Z,21.50
2019-05-20T13:41:40.640Z,21.40
2019-05-20T13:44:30.027Z,21.40
2019-05-20T13:47:19.199Z,21.10
2019-05-20T13:50:10.312Z,21.10
2019-05-20T13:52:59.409Z,21.30
2019-05-20T13:55:48.936Z,21.50
2019-05-20T13:58:37.963Z,21.80
2019-05-20T14:01:27.450Z,21.90
2019-05-20T14:04:17.061Z,21.40
2019-05-20T14:07:06.534Z,21.20
2019-05-20T14:09:55.554Z,21.10
2019-05-20T14:12:44.721Z,21.10
2019-05-20T14:15:34.131Z,21.30
2019-05-20T14:18:23.172Z,21.50
2019-05-20T14:21:12.478Z,21.50
2019-05-20T14:24:02.005Z,21.40
2019-05-20T14:26:51.012Z,21.20
2019-05-20T14:29:40.385Z,21.50
2019-05-20T14:32:29.652Z,21.90
2019-05-20T14:35:18.807Z,21.90
2019-05-20T14:38:07.578Z,22.00
2019-05-20T14:40:56.584Z,22.10
2019-05-20T14:43:46.230Z,22.10
2019-05-20T14:46:35.519Z,22.40
2019-05-20T14:49:24.766Z,22.00
2019-05-20T14:52:14.091Z,21.90
2019-05-20T14:55:03.598Z,21.80
2019-05-20T14:57:52.542Z,21.70
2019-05-20T15:00:41.912Z,22.10
2019-05-20T15:03:30.821Z,22.00
2019-05-20T15:06:19.545Z,21.90
2019-05-20T15:09:08.676Z,22.20
2019-05-20T15:11:58.186Z,22.10
2019-05-20T15:14:47.455Z,22.20
2019-05-20T15:17:36.692Z,22.10
2019-05-20T15:20:25.389Z,22.30
2019-05-20T15:23:14.348Z,22.20
2019-05-20T15:26:04.137Z,22.30
2019-05-20T15:28:53.526Z,22.20
2019-05-20T15:31:42.978Z,22.00
2019-05-20T15:34:32.468Z,22.00
2019-05-20T15:37:21.619Z,21.50
2019-05-20T15:40:10.766Z,21.60
2019-05-20T15:43:00.157Z,21.40
2019-05-20T15:45:48.978Z,21.70
2019-05-20T15:48:38.116Z,21.90
2019-05-20T15:51:27.525Z,21.90
2019-05-20T15:54:16.541Z,22.10
2019-05-20T15:57:05.195Z,21.50
2019-05-20T15:59:54.738Z,21.40
2019-05-20T16:02:43.814Z,21.50
2019-05-20T16:05:32.489Z,21.70
2019-05-20T16:08:21.523Z,21.60
2019-05-20T16:11:11.012Z,21.70
2019-05-20T16:13:59.751Z,21.80
2019-05-20T16:16:49.152Z,21.70
2019-05-20T16:19:38.264Z,21.90
2019-05-20T16:22:27.041Z,22.00
2019-05-20T16:25:16.363Z,22.10
2019-05-20T16:28:06.014Z,22.00
2019-05-20T16:30:55.390Z,22.00
2019-05-20T16:33:44.159Z,21.80
2019-05-20T16:36:33.583Z,21.60
2019-05-20T16:39:22.622Z,21.30
2019-05-20T16:42:12.670Z,21.30
2019-05-20T16:45:01.977Z,21.30
2019-05-20T16:47:52.290Z,21.50
2019-05-20T16:50:42.115Z,21.70
2019-05-20T16:53:34.694Z,21.60
2019-05-20T16:56:24.233Z,21.50
2019-05-20T16:59:12.953Z,21.40
2019-05-20T17:02:01.643Z,21.40
2019-05-20T17:04:51.054Z,21.50
2019-05-20T17:07:40.287Z,21.50
2019-05-20T17:10:29.631Z,21.40
2019-05-20T17:13:18.792Z,21.50
2019-05-20T17:16:07.714Z,21.60
2019-05-20T17:18:56.745Z,21.50
2019-05-20T17:21:45.714Z,21.50
2019-05-20T17:24:35.102Z,21.40
2019-05-20T17:27:23.810Z,21.40
2019-05-20T17:30:13.584Z,21.30
2019-05-20T17:33:02.397Z,21.30
2019-05-20T17:35:51.580Z,21.30
2019-05-20T17:38:41.022Z,21.30
2019-05-20T17:41:29.751Z,21.30
2019-05-20T17:44:18.685Z,21.20
2019-05-20T17:47:08.332Z,21.20
2019-05-20T17:49:57.803Z,21.20
2019-05-20T17:52:46.914Z,21.30
2019-05-20T17:55:36.066Z,21.30
2019-05-20T17:58:25.720Z,21.30
2019-05-20T18:01:16.215Z,21.20
2019-05-20T18:04:05.661Z,21.20
2019-05-20T18:06:54.333Z,21.20
2019-05-20T18:09:48.199Z,21.10
2019-05-20T18:12:36.863Z,21.10
2019-05-20T18:15:26.425Z,21.00
2019-05-20T18:18:15.620Z,20.80
2019-05-20T18:21:04.907Z,20.80
2019-05-20T18:23:53.736Z,20.70
2019-05-20T18:26:43.016Z,20.60
2019-05-20T18:29:32.604Z,20.50
2019-05-20T18:32:21.789Z,20.40
2019-05-20T18:35:11.228Z,20.30
2019-05-20T18:38:00.997Z,20.20
2019-05-20T18:40:50.660Z,20.20
2019-05-20T18:43:39.960Z,20.10
2019-05-20T18:46:28.801Z,20.00
2019-05-20T18:49:17.589Z,20.00
2019-05-20T18:52:06.723Z,19.90
2019-05-20T18:54:55.641Z,19.90
2019-05-20T18:57:44.838Z,19.90
2019-05-20T19:00:34.653Z,19.90
2019-05-20T19:03:24.719Z,19.80
2019-05-20T19:06:14.459Z,19.70
2019-05-20T19:09:03.385Z,19.70
2019-05-20T19:11:52.433Z,19.60
2019-05-20T19:14:41.610Z,19.60
2019-05-20T19:17:30.098Z,19.50
2019-05-20T19:20:22.849Z,19.50
2019-05-20T19:23:10.063Z,19.50
2019-05-20T19:25:59.059Z,19.50
2019-05-20T19:28:48.269Z,19.40
2019-05-20T19:31:37.538Z,19.40
2019-05-20T19:34:26.579Z,19.30
2019-05-20T19:37:15.768Z,19.30
2019-05-20T19:40:07.118Z,19.20
2019-05-20T19:42:57.375Z,19.20
2019-05-20T19:45:47.085Z,19.10
2019-05-20T19:48:36.083Z,19.10
2019-05-20T19:51:25.186Z,19.00
2019-05-20T19:54:14.675Z,19.00
2019-05-20T19:57:03.417Z,18.90
2019-05-20T19:59:52.622Z,18.90
2019-05-20T20:02:41.751Z,18.90
2019-05-20T20:05:30.778Z,18.90
2019-05-20T20:08:19.700Z,18.80
2019-05-20T20:11:08.858Z,18.80
2019-05-20T20:13:58.535Z,18.80
2019-05-20T20:16:47.280Z,18.70
2019-05-20T20:19:36.394Z,18.70
2019-05-20T20:22:25.661Z,18.70
2019-05-20T20:25:15.293Z,18.70
2019-05-20T20:28:04.324Z,18.70
2019-05-20T20:30:53.833Z,18.80
2019-05-20T20:33:43.225Z,18.70
2019-05-20T20:36:32.373Z,18.70
2019-05-20T20:39:21.513Z,18.60
2019-05-20T20:42:11.229Z,18.50
2019-05-20T20:45:00.062Z,18.50
2019-05-20T20:47:48.941Z,18.50
2019-05-20T20:50:37.887Z,18.50
2019-05-20T20:53:27.482Z,18.40
2019-05-20T20:56:25.155Z,18.40
2019-05-20T20:59:07.562Z,18.40
2019-05-20T21:01:59.132Z,18.30
2019-05-20T21:04:47.734Z,18.30
2019-05-20T21:07:36.576Z,18.30
2019-05-20T21:10:26.477Z,18.30
2019-05-20T21:13:15.330Z,18.30
2019-05-20T21:16:04.725Z,18.30
2019-05-20T21:18:54.076Z,18.20
2019-05-20T21:21:43.358Z,18.20
2019-05-20T21:24:32.123Z,18.30
2019-05-20T21:27:21.168Z,18.30
2019-05-20T21:30:11.658Z,18.30
2019-05-20T21:33:09.140Z,18.30
2019-05-20T21:35:51.964Z,18.30
2019-05-20T21:38:40.477Z,18.30
2019-05-20T21:41:29.257Z,18.20
2019-05-20T21:44:18.634Z,18.20
2019-05-20T21:47:08.206Z,18.20
2019-05-20T21:49:58.510Z,18.20
2019-05-20T21:52:48.394Z,18.20
2019-05-20T21:55:37.712Z,18.20
2019-05-20T21:58:27.230Z,18.10
2019-05-20T22:01:16.417Z,18.10
2019-05-20T22:04:05.673Z,18.00
2019-05-20T22:06:54.780Z,18.00
2019-05-20T22:09:43.597Z,17.90
2019-05-20T22:12:32.847Z,18.00
2019-05-20T22:15:22.541Z,17.90
2019-05-20T22:18:11.603Z,17.90
2019-05-20T22:21:00.623Z,17.80
2019-05-20T22:23:53.575Z,17.80
2019-05-20T22:26:43.205Z,17.80
2019-05-20T22:29:32.484Z,17.80
2019-05-20T22:32:21.943Z,17.70
2019-05-20T22:35:11.288Z,17.70
2019-05-20T22:38:02.633Z,17.70
2019-05-20T22:41:00.423Z,17.60
2019-05-20T22:43:49.575Z,17.60
2019-05-20T22:46:38.811Z,17.60
2019-05-20T22:49:27.436Z,17.50
2019-05-20T22:52:17.075Z,17.50
2019-05-20T22:55:06.903Z,17.50
2019-05-20T22:57:56.208Z,17.40
2019-05-20T23:00:48.626Z,17.40
2019-05-20T23:03:55.713Z,17.40
2019-05-20T23:06:34.328Z,17.40
2019-05-20T23:09:23.709Z,17.40
2019-05-20T23:12:13.127Z,17.30
2019-05-20T23:15:02.493Z,17.20
2019-05-20T23:17:52.187Z,17.20
2019-05-20T23:20:44.586Z,17.10
2019-05-20T23:23:34.199Z,17.00
2019-05-20T23:26:27.476Z,17.00
2019-05-20T23:29:19.897Z,16.90
2019-05-20T23:32:08.972Z,16.80
2019-05-20T23:35:02.202Z,16.80
2019-05-20T23:38:01.022Z,16.80
2019-05-20T23:40:49.990Z,16.70
2019-05-20T23:43:39.304Z,16.80
2019-05-20T23:46:28.503Z,16.70
2019-05-20T23:49:23.205Z,16.70
2019-05-20T23:52:21.236Z,16.70
2019-05-20T23:55:11.112Z,16.60
2019-05-20T23:58:00.655Z,16.70
